| time (UTC) | temp F | wind direction | speed MPH | gust MPH | rain 1hr in | rain 24hr in | rain mn in | humidity % | barometer mb |
| 20260831185341 | 55 | 202 | 2.0 | 3.0 | 0.00 | 0.00 | 0.00 | 87 | 1026.6 |
| 20260831184839 | 55 | 180 | 3.0 | 4.0 | 0.00 | 0.00 | 0.00 | 89 | 1026.6 |
| 20260831184336 | 55 | 180 | 4.0 | 5.0 | 0.00 | 0.00 | 0.00 | 89 | 1026.6 |
| 20260831183834 | 54 | 180 | 4.0 | 4.0 | 0.00 | 0.00 | 0.00 | 87 | 1026.5 |
| 20260831183331 | 55 | 180 | 3.0 | 3.0 | 0.00 | 0.00 | 0.00 | 86 | 1026.5 |
| 20260831182829 | 55 | 180 | 2.0 | 3.0 | 0.00 | 0.00 | 0.00 | 85 | 1026.4 |
| 20260831182327 | 55 | 180 | 1.0 | 3.0 | 0.00 | 0.00 | 0.00 | 85 | 1026.4 |
| 20260831181827 | 55 | 180 | 3.0 | 4.0 | 0.00 | 0.00 | 0.00 | 86 | 1026.6 |
| 20260831181323 | 55 | 180 | 3.0 | 3.0 | 0.00 | 0.00 | 0.00 | 85 | 1026.4 |
| 20260831180821 | 55 | 180 | 2.0 | 3.0 | 0.00 | 0.00 | 0.00 | 84 | 1026.4 |
| 20260831180318 | 55 | 180 | 2.0 | 3.0 | 0.00 | 0.00 | 0.00 | 84 | 1026.4 |
| 20260831175816 | 55 | 180 | 2.0 | 3.0 | 0.00 | 0.00 | 0.00 | 84 | 1026.5 |
| 20260831175313 | 55 | 180 | 3.0 | 3.0 | 0.00 | 0.00 | 0.00 | 84 | 1026.5 |
| 20260831174812 | 55 | 180 | 3.0 | 4.0 | 0.00 | 0.00 | 0.00 | 84 | 1026.5 |
| 20260831174309 | 55 | 180 | 3.0 | 4.0 | 0.00 | 0.00 | 0.00 | 83 | 1026.5 |
| 20260831173806 | 55 | 191 | 3.0 | 3.0 | 0.00 | 0.00 | 0.00 | 82 | 1026.5 |
| 20260831173307 | 55 | 180 | 3.0 | 4.0 | 0.00 | 0.00 | 0.00 | 82 | 1026.5 |
| 20260831172802 | 55 | 180 | 3.0 | 3.0 | 0.00 | 0.00 | 0.00 | 81 | 1026.5 |
| 20260831172300 | 55 | 180 | 2.0 | 3.0 | 0.00 | 0.00 | 0.00 | 81 | 1026.5 |
| 20260831171255 | 55 | 180 | 3.0 | 3.0 | 0.00 | 0.00 | 0.00 | 80 | 1026.6 |
| 20260831170753 | 55 | 180 | 2.0 | 3.0 | 0.00 | 0.00 | 0.00 | 79 | 1026.5 |
| 20260831170250 | 55 | 180 | 3.0 | 3.0 | 0.00 | 0.00 | 0.00 | 79 | 1026.6 |
| 20260831165748 | 55 | 180 | 2.0 | 3.0 | 0.00 | 0.00 | 0.00 | 78 | 1026.6 |
| 20260831165246 | 55 | 180 | 4.0 | 4.0 | 0.00 | 0.00 | 0.00 | 77 | 1026.7 |
| 20260831164743 | 55 | 180 | 3.0 | 3.0 | 0.00 | 0.00 | 0.00 | 76 | 1026.6 |
| 20260831164241 | 55 | 180 | 2.0 | 2.0 | 0.00 | 0.00 | 0.00 | 74 | 1026.6 |
| 20260831163739 | 56 | 180 | 2.0 | 2.0 | 0.00 | 0.00 | 0.00 | 73 | 1026.6 |
| 20260831163237 | 56 | 180 | 1.0 | 2.0 | 0.00 | 0.00 | 0.00 | 73 | 1026.6 |
| 20260831162735 | 56 | 180 | 2.0 | 3.0 | 0.00 | 0.00 | 0.00 | 73 | 1026.6 |
| 20260831162232 | 56 | 180 | 2.0 | 2.0 | 0.00 | 0.00 | 0.00 | 73 | 1026.6 |
| 20260831161730 | 56 | 157 | 1.0 | 2.0 | 0.00 | 0.00 | 0.00 | 72 | 1026.6 |
| 20260831161228 | 56 | 180 | 2.0 | 3.0 | 0.00 | 0.00 | 0.00 | 72 | 1026.5 |
| 20260831160725 | 56 | 180 | 2.0 | 3.0 | 0.00 | 0.00 | 0.00 | 72 | 1026.5 |
| 20260831160223 | 57 | 180 | 2.0 | 3.0 | 0.00 | 0.00 | 0.00 | 72 | 1026.6 |
| 20260831155720 | 57 | 180 | 3.0 | 4.0 | 0.00 | 0.00 | 0.00 | 72 | 1026.6 |
| 20260831155218 | 57 | 180 | 3.0 | 4.0 | 0.00 | 0.00 | 0.00 | 72 | 1026.7 |
| 20260831154716 | 57 | 180 | 3.0 | 3.0 | 0.00 | 0.00 | 0.00 | 71 | 1026.6 |
| 20260831154214 | 57 | 180 | 3.0 | 4.0 | 0.00 | 0.00 | 0.00 | 71 | 1026.7 |
| 20260831153712 | 58 | 180 | 3.0 | 3.0 | 0.00 | 0.00 | 0.00 | 69 | 1026.7 |
| 20260831153210 | 58 | 180 | 1.0 | 2.0 | 0.00 | 0.00 | 0.00 | 69 | 1026.7 |
| 20260831152707 | 58 | 180 | 1.0 | 2.0 | 0.00 | 0.00 | 0.00 | 69 | 1026.9 |
| 20260831152205 | 59 | 180 | 2.0 | 3.0 | 0.00 | 0.00 | 0.00 | 69 | 1026.9 |
| 20260831151702 | 59 | 135 | 2.0 | 2.0 | 0.00 | 0.00 | 0.00 | 69 | 1026.9 |
| 20260831151200 | 59 | 135 | 1.0 | 1.0 | 0.00 | 0.00 | 0.00 | 68 | 1026.9 |
| 20260831150658 | 60 | 90 | 1.0 | 1.0 | 0.00 | 0.00 | 0.00 | 69 | 1026.9 |
| 20260831150155 | 60 | 45 | 1.0 | 2.0 | 0.00 | 0.00 | 0.00 | 68 | 1027.0 |
| 20260831145653 | 60 | 45 | 1.0 | 3.0 | 0.00 | 0.00 | 0.00 | 68 | 1027.1 |
| 20260831145151 | 60 | 45 | 2.0 | 3.0 | 0.00 | 0.00 | 0.00 | 68 | 1027.0 |
| 20260831144649 | 60 | 45 | 2.0 | 4.0 | 0.00 | 0.00 | 0.00 | 68 | 1027.0 |
| 20260831144147 | 60 | 45 | 4.0 | 4.0 | 0.00 | 0.00 | 0.00 | 68 | 1027.2 |
| 20260831143644 | 61 | 45 | 1.0 | 4.0 | 0.00 | 0.00 | 0.00 | 66 | 1027.2 |
| 20260831143142 | 61 | 45 | 2.0 | 3.0 | 0.00 | 0.00 | 0.00 | 67 | 1027.2 |
| 20260831142639 | 61 | 33 | 3.0 | 5.0 | 0.00 | 0.00 | 0.00 | 67 | 1027.2 |
| 20260831142137 | 61 | 45 | 5.0 | 5.0 | 0.00 | 0.00 | 0.00 | 69 | 1027.2 |
| 20260831141635 | 61 | 45 | 2.0 | 4.0 | 0.00 | 0.00 | 0.00 | 65 | 1027.2 |
| 20260831141132 | 61 | 45 | 1.0 | 4.0 | 0.00 | 0.00 | 0.00 | 65 | 1027.1 |
| 20260831140630 | 61 | 67 | 1.0 | 2.0 | 0.00 | 0.00 | 0.00 | 63 | 1027.0 |
| 20260831140128 | 61 | 22 | 1.0 | 3.0 | 0.00 | 0.00 | 0.00 | 64 | 1027.1 |
| 20260831135626 | 61 | 45 | 2.0 | 3.0 | 0.00 | 0.00 | 0.00 | 63 | 1027.1 |
| 20260831135124 | 62 | 11 | 3.0 | 3.0 | 0.00 | 0.00 | 0.00 | 62 | 1027.0 |
| 20260831134622 | 62 | 0 | 1.0 | 3.0 | 0.00 | 0.00 | 0.00 | 61 | 1027.1 |
| 20260831134121 | 62 | 22 | 3.0 | 3.0 | 0.00 | 0.00 | 0.00 | 61 | 1027.0 |
| 20260831133616 | 62 | 0 | 2.0 | 2.0 | 0.00 | 0.00 | 0.00 | 61 | 1027.0 |
| 20260831133114 | 62 | 22 | 2.0 | 4.0 | 0.00 | 0.00 | 0.00 | 61 | 1026.9 |
| 20260831132614 | 62 | 56 | 3.0 | 5.0 | 0.00 | 0.00 | 0.00 | 62 | 1026.9 |
| 20260831132110 | 63 | 45 | 2.0 | 6.0 | 0.00 | 0.00 | 0.00 | 61 | 1026.9 |
| 20260831131607 | 63 | 22 | 1.0 | 4.0 | 0.00 | 0.00 | 0.00 | 61 | 1027.0 |
| 20260831131105 | 63 | 45 | 2.0 | 5.0 | 0.00 | 0.00 | 0.00 | 60 | 1027.0 |
| 20260831130603 | 63 | 0 | 3.0 | 7.0 | 0.00 | 0.00 | 0.00 | 60 | 1026.9 |
| 20260831130101 | 63 | 112 | 2.0 | 5.0 | 0.00 | 0.00 | 0.00 | 58 | 1026.9 |
| 20260831125559 | 63 | 45 | 3.0 | 4.0 | 0.00 | 0.00 | 0.00 | 58 | 1026.9 |
| 20260831125056 | 63 | 45 | 1.0 | 4.0 | 0.00 | 0.00 | 0.00 | 57 | 1026.8 |
| 20260831124553 | 63 | 90 | 2.0 | 5.0 | 0.00 | 0.00 | 0.00 | 57 | 1026.8 |
| 20260831124051 | 63 | 90 | 3.0 | 5.0 | 0.00 | 0.00 | 0.00 | 57 | 1026.8 |
| 20260831123549 | 63 | 90 | 3.0 | 4.0 | 0.00 | 0.00 | 0.00 | 57 | 1026.8 |
| 20260831123047 | 64 | 90 | 4.0 | 7.0 | 0.00 | 0.00 | 0.00 | 56 | 1026.7 |
| 20260831122544 | 64 | 90 | 4.0 | 6.0 | 0.00 | 0.00 | 0.00 | 56 | 1026.6 |
| 20260831122042 | 64 | 90 | 3.0 | 4.0 | 0.00 | 0.00 | 0.00 | 55 | 1026.5 |
| 20260831121540 | 64 | 78 | 3.0 | 4.0 | 0.00 | 0.00 | 0.00 | 54 | 1026.5 |
| 20260831121038 | 64 | 90 | 4.0 | 5.0 | 0.00 | 0.00 | 0.00 | 54 | 1026.4 |
| 20260831120536 | 65 | 67 | 4.0 | 6.0 | 0.00 | 0.00 | 0.00 | 54 | 1026.4 |
| 20260831120033 | 65 | 90 | 5.0 | 7.0 | 0.00 | 0.00 | 0.00 | 54 | 1026.4 |
| 20260831115530 | 65 | 90 | 4.0 | 8.0 | 0.00 | 0.00 | 0.00 | 53 | 1026.4 |
| 20260831115028 | 65 | 90 | 4.0 | 8.0 | 0.00 | 0.00 | 0.00 | 53 | 1026.4 |
| 20260831114526 | 65 | 90 | 4.0 | 7.0 | 0.00 | 0.00 | 0.00 | 53 | 1026.4 |
| 20260831114024 | 65 | 67 | 5.0 | 5.0 | 0.00 | 0.00 | 0.00 | 52 | 1026.3 |
| 20260831113524 | 65 | 90 | 4.0 | 4.0 | 0.00 | 0.00 | 0.00 | 52 | 1026.3 |
| 20260831113019 | 66 | 67 | 3.0 | 3.0 | 0.00 | 0.00 | 0.00 | 50 | 1026.2 |
| 20260831112517 | 66 | 56 | 2.0 | 4.0 | 0.00 | 0.00 | 0.00 | 49 | 1026.1 |
| 20260831112015 | 66 | 78 | 3.0 | 7.0 | 0.00 | 0.00 | 0.00 | 50 | 1026.1 |
| 20260831111513 | 66 | 112 | 4.0 | 5.0 | 0.00 | 0.00 | 0.00 | 50 | 1026.1 |
| 20260831111010 | 66 | 112 | 3.0 | 5.0 | 0.00 | 0.00 | 0.00 | 48 | 1025.8 |
| 20260831110507 | 67 | 112 | 3.0 | 5.0 | 0.00 | 0.00 | 0.00 | 47 | 1025.7 |
| 20260831110005 | 67 | 135 | 3.0 | 7.0 | 0.00 | 0.00 | 0.00 | 47 | 1025.7 |
| 20260831105503 | 67 | 90 | 5.0 | 6.0 | 0.00 | 0.00 | 0.00 | 47 | 1025.6 |
| 20260831105001 | 67 | 90 | 3.0 | 5.0 | 0.00 | 0.00 | 0.00 | 46 | 1025.5 |
| 20260831104459 | 68 | 78 | 3.0 | 5.0 | 0.00 | 0.00 | 0.00 | 46 | 1025.4 |
| 20260831103956 | 68 | 112 | 3.0 | 7.0 | 0.00 | 0.00 | 0.00 | 46 | 1025.4 |
| 20260831103454 | 68 | 112 | 4.0 | 8.0 | 0.00 | 0.00 | 0.00 | 46 | 1025.3 |
| 20260831102952 | 68 | 90 | 5.0 | 8.0 | 0.00 | 0.00 | 0.00 | 46 | 1025.2 |
| 20260831102450 | 67 | 90 | 4.0 | 8.0 | 0.00 | 0.00 | 0.00 | 46 | 1025.3 |
| 20260831101949 | 67 | 90 | 4.0 | 7.0 | 0.00 | 0.00 | 0.00 | 45 | 1025.3 |
| 20260831101445 | 67 | 90 | 7.0 | 9.0 | 0.00 | 0.00 | 0.00 | 45 | 1025.1 |
| 20260831100942 | 66 | 78 | 4.0 | 7.0 | 0.00 | 0.00 | 0.00 | 44 | 1025.1 |
| 20260831100440 | 66 | 45 | 3.0 | 4.0 | 0.00 | 0.00 | 0.00 | 44 | 1025.1 |
| 20260831095939 | 66 | 90 | 0.0 | 1.0 | 0.00 | 0.00 | 0.00 | 44 | 1025.1 |
| 20260831095436 | 66 | 90 | 1.0 | 1.0 | 0.00 | 0.00 | 0.00 | 44 | 1025.0 |
| 20260831094934 | 66 | 180 | 0.0 | 1.0 | 0.00 | 0.00 | 0.00 | 44 | 1025.0 |
| 20260831094431 | 66 | 90 | 0.0 | 1.0 | 0.00 | 0.00 | 0.00 | 43 | 1024.9 |
| 20260831093929 | 67 | 90 | 1.0 | 1.0 | 0.00 | 0.00 | 0.00 | 43 | 1024.8 |
| 20260831093428 | 67 | 90 | 1.0 | 1.0 | 0.00 | 0.00 | 0.00 | 43 | 1024.8 |
| 20260831092924 | 67 | 45 | 1.0 | 1.0 | 0.00 | 0.00 | 0.00 | 42 | 1024.7 |
| 20260831092422 | 67 | 90 | 1.0 | 1.0 | 0.00 | 0.00 | 0.00 | 42 | 1024.7 |
| 20260831091919 | 67 | 45 | 0.0 | 1.0 | 0.00 | 0.00 | 0.00 | 42 | 1024.5 |
| 20260831091417 | 68 | 90 | 0.0 | 1.0 | 0.00 | 0.00 | 0.00 | 41 | 1024.5 |
| 20260831090915 | 68 | 45 | 0.0 | 1.0 | 0.00 | 0.00 | 0.00 | 41 | 1024.4 |
| 20260831090413 | 68 | 90 | 0.0 | 1.0 | 0.00 | 0.00 | 0.00 | 40 | 1024.4 |
| 20260831085405 | 69 | 45 | 1.0 | 1.0 | 0.00 | 0.00 | 0.00 | 40 | 1024.4 |
| 20260831084903 | 69 | 90 | 1.0 | 1.0 | 0.00 | 0.00 | 0.00 | 39 | 1024.2 |
| 20260831084401 | 70 | 90 | 0.0 | 1.0 | 0.00 | 0.00 | 0.00 | 39 | 1024.2 |
| 20260831083858 | 70 | 45 | 1.0 | 1.0 | 0.00 | 0.00 | 0.00 | 39 | 1024.1 |
| 20260831083356 | 70 | 135 | 1.0 | 1.0 | 0.00 | 0.00 | 0.00 | 38 | 1024.1 |
| 20260831082854 | 71 | 90 | 1.0 | 2.0 | 0.00 | 0.00 | 0.00 | 38 | 1024.0 |
| 20260831082351 | 71 | 90 | 1.0 | 1.0 | 0.00 | 0.00 | 0.00 | 37 | 1024.0 |
| 20260831081849 | 72 | 90 | 1.0 | 1.0 | 0.00 | 0.00 | 0.00 | 37 | 1023.9 |
| 20260831081349 | 72 | 135 | 2.0 | 3.0 | 0.00 | 0.00 | 0.00 | 36 | 1023.8 |
| 20260831080845 | 72 | 90 | 3.0 | 3.0 | 0.00 | 0.00 | 0.00 | 36 | 1023.8 |
| 20260831080343 | 73 | 90 | 2.0 | 4.0 | 0.00 | 0.00 | 0.00 | 36 | 1023.7 |
| 20260831075840 | 73 | 90 | 3.0 | 4.0 | 0.00 | 0.00 | 0.00 | 35 | 1023.7 |
| 20260831075340 | 74 | 78 | 4.0 | 5.0 | 0.00 | 0.00 | 0.00 | 34 | 1023.6 |
| 20260831074839 | 74 | 90 | 4.0 | 5.0 | 0.00 | 0.00 | 0.00 | 34 | 1023.6 |
| 20260831074333 | 75 | 90 | 3.0 | 7.0 | 0.00 | 0.00 | 0.00 | 33 | 1023.5 |
| 20260831073832 | 75 | 78 | 5.0 | 8.0 | 0.00 | 0.00 | 0.00 | 32 | 1023.3 |
| 20260831073328 | 76 | 67 | 4.0 | 6.0 | 0.00 | 0.00 | 0.00 | 32 | 1023.4 |
| 20260831072826 | 76 | 90 | 4.0 | 5.0 | 0.00 | 0.00 | 0.00 | 32 | 1023.3 |
| 20260831072324 | 76 | 45 | 3.0 | 7.0 | 0.00 | 0.00 | 0.00 | 32 | 1023.2 |
| 20260831071822 | 77 | 90 | 7.0 | 7.0 | 0.00 | 0.00 | 0.00 | 31 | 1023.2 |
| 20260831071320 | 77 | 123 | 4.0 | 7.0 | 0.00 | 0.00 | 0.00 | 31 | 1023.2 |
| 20260831070818 | 77 | 67 | 7.0 | 9.0 | 0.00 | 0.00 | 0.00 | 30 | 1023.1 |
| 20260831070317 | 77 | 90 | 7.0 | 8.0 | 0.00 | 0.00 | 0.00 | 30 | 1023.0 |
| 20260831065817 | 78 | 90 | 7.0 | 9.0 | 0.00 | 0.00 | 0.00 | 29 | 1022.9 |
| 20260831065313 | 78 | 67 | 5.0 | 9.0 | 0.00 | 0.00 | 0.00 | 30 | 1023.0 |
| 20260831064809 | 78 | 135 | 6.0 | 8.0 | 0.00 | 0.00 | 0.00 | 30 | 1022.9 |
| 20260831064306 | 78 | 90 | 7.0 | 11.0 | 0.00 | 0.00 | 0.00 | 29 | 1022.8 |
| 20260831063806 | 78 | 112 | 8.0 | 10.0 | 0.00 | 0.00 | 0.00 | 29 | 1022.8 |
| 20260831063304 | 78 | 22 | 6.0 | 10.0 | 0.00 | 0.00 | 0.00 | 29 | 1022.8 |
| 20260831062802 | 78 | 67 | 4.0 | 8.0 | 0.00 | 0.00 | 0.00 | 30 | 1022.7 |
| 20260831062258 | 78 | 90 | 8.0 | 10.0 | 0.00 | 0.00 | 0.00 | 29 | 1022.7 |
| 20260831061757 | 78 | 22 | 6.0 | 11.0 | 0.00 | 0.00 | 0.00 | 29 | 1022.8 |
| 20260831061255 | 78 | 90 | 9.0 | 12.0 | 0.00 | 0.00 | 0.00 | 29 | 1022.7 |
| 20260831060752 | 78 | 90 | 7.0 | 10.0 | 0.00 | 0.00 | 0.00 | 29 | 1022.8 |
| 20260831060248 | 78 | 90 | 5.0 | 8.0 | 0.00 | 0.00 | 0.00 | 31 | 1022.9 |
| 20260831055748 | 78 | 135 | 4.0 | 12.0 | 0.00 | 0.00 | 0.00 | 31 | 1022.7 |
| 20260831055405 | 78 | 135 | 12.0 | 12.0 | 0.00 | 0.00 | 0.00 | 31 | 1022.8 |
| 20260831055032 | 78 | 56 | 3.0 | 10.0 | 0.00 | 0.00 | 0.00 | 30 | 1022.7 |
| 20260831054028 | 78 | 90 | 8.0 | 14.0 | 0.00 | 0.00 | 0.00 | 30 | 1022.8 |
| 20260831053527 | 78 | 112 | 7.0 | 14.0 | 0.00 | 0.00 | 0.00 | 30 | 1022.8 |
| 20260831053023 | 78 | 90 | 11.0 | 13.0 | 0.00 | 0.00 | 0.00 | 30 | 1022.9 |
| 20260831052521 | 78 | 90 | 16.0 | 16.0 | 0.00 | 0.00 | 0.00 | 31 | 1022.9 |
| 20260831052019 | 78 | 90 | 9.0 | 9.0 | 0.00 | 0.00 | 0.00 | 31 | 1022.8 |
| 20260831051517 | 79 | 135 | 7.0 | 10.0 | 0.00 | 0.00 | 0.00 | 31 | 1023.0 |
| 20260831051013 | 78 | 45 | 10.0 | 11.0 | 0.00 | 0.00 | 0.00 | 31 | 1023.0 |
| 20260831050511 | 79 | 45 | 7.0 | 12.0 | 0.00 | 0.00 | 0.00 | 30 | 1023.0 |
| 20260831050008 | 78 | 90 | 4.0 | 15.0 | 0.00 | 0.00 | 0.00 | 30 | 1023.0 |
| 20260831045657 | 78 | 112 | 12.0 | 14.0 | 0.00 | 0.00 | 0.00 | 30 | 1023.0 |
| 20260831045155 | 78 | 67 | 8.0 | 9.0 | 0.00 | 0.00 | 0.00 | 31 | 1023.1 |
| 20260831044654 | 78 | 90 | 4.0 | 12.0 | 0.00 | 0.00 | 0.00 | 32 | 1023.2 |
| 20260831043649 | 78 | 78 | 5.0 | 9.0 | 0.00 | 0.00 | 0.00 | 32 | 1023.2 |
| 20260831043146 | 78 | 67 | 8.0 | 9.0 | 0.00 | 0.00 | 0.00 | 31 | 1023.3 |
| 20260831042644 | 78 | 157 | 12.0 | 12.0 | 0.00 | 0.00 | 0.00 | 31 | 1023.2 |
| 20260831042541 | 78 | 135 | 3.0 | 15.0 | 0.00 | 0.00 | 0.00 | 32 | 1023.3 |
| 20260831042309 | 78 | 90 | 13.0 | 15.0 | 0.00 | 0.00 | 0.00 | 31 | 1023.3 |
| 20260831041807 | 78 | 135 | 7.0 | 17.0 | 0.00 | 0.00 | 0.00 | 32 | 1023.4 |
| 20260831041504 | 78 | 90 | 16.0 | 16.0 | 0.00 | 0.00 | 0.00 | 32 | 1023.4 |
| 20260831041124 | 78 | 45 | 7.0 | 13.0 | 0.00 | 0.00 | 0.00 | 31 | 1023.3 |
| 20260831040620 | 78 | 135 | 11.0 | 13.0 | 0.00 | 0.00 | 0.00 | 32 | 1023.5 |
| 20260831040119 | 77 | 135 | 6.0 | 15.0 | 0.00 | 0.00 | 0.00 | 32 | 1023.6 |
| 20260831035857 | 77 | 45 | 15.0 | 15.0 | 0.00 | 0.00 | 0.00 | 33 | 1023.6 |
| 20260831035434 | 77 | 56 | 4.0 | 14.0 | 0.00 | 0.00 | 0.00 | 35 | 1023.8 |
| 20260831034930 | 77 | 90 | 8.0 | 17.0 | 0.00 | 0.00 | 0.00 | 34 | 1023.9 |
| 20260831034610 | 76 | 135 | 17.0 | 17.0 | 0.00 | 0.00 | 0.00 | 34 | 1023.9 |
| 20260831034318 | 76 | 112 | 4.0 | 9.0 | 0.00 | 0.00 | 0.00 | 35 | 1023.9 |
| 20260831033815 | 76 | 90 | 4.0 | 12.0 | 0.00 | 0.00 | 0.00 | 35 | 1024.0 |
| 20260831033313 | 76 | 135 | 11.0 | 11.0 | 0.00 | 0.00 | 0.00 | 36 | 1024.2 |
| 20260831033010 | 76 | 202 | 3.0 | 11.0 | 0.00 | 0.00 | 0.00 | 36 | 1024.2 |
| 20260831032509 | 76 | 135 | 7.0 | 15.0 | 0.00 | 0.00 | 0.00 | 36 | 1024.3 |
| 20260831032007 | 76 | 112 | 7.0 | 17.0 | 0.00 | 0.00 | 0.00 | 35 | 1024.4 |
| 20260831031703 | 77 | 123 | 15.0 | 15.0 | 0.00 | 0.00 | 0.00 | 36 | 1024.4 |
| 20260831031201 | 76 | 90 | 7.0 | 17.0 | 0.00 | 0.00 | 0.00 | 35 | 1024.5 |
| 20260831030759 | 76 | 112 | 15.0 | 15.0 | 0.00 | 0.00 | 0.00 | 35 | 1024.4 |
| 20260831030637 | 76 | 112 | 7.0 | 13.0 | 0.00 | 0.00 | 0.00 | 35 | 1024.5 |
| 20260831030134 | 76 | 67 | 10.0 | 17.0 | 0.00 | 0.00 | 0.00 | 34 | 1024.5 |
| 20260831025633 | 75 | 90 | 14.0 | 15.0 | 0.00 | 0.00 | 0.00 | 36 | 1024.7 |
| 20260831025129 | 75 | 112 | 8.0 | 16.0 | 0.00 | 0.00 | 0.00 | 36 | 1024.7 |
| 20260831024907 | 74 | 90 | 16.0 | 16.0 | 0.00 | 0.00 | 0.00 | 38 | 1024.9 |
| 20260831024446 | 74 | 112 | 6.0 | 15.0 | 0.00 | 0.00 | 0.00 | 39 | 1025.0 |
| 20260831024103 | 74 | 135 | 15.0 | 15.0 | 0.00 | 0.00 | 0.00 | 39 | 1025.1 |
| 20260831023602 | 74 | 90 | 8.0 | 16.0 | 0.00 | 0.00 | 0.00 | 40 | 1025.1 |
| 20260831023100 | 74 | 90 | 15.0 | 15.0 | 0.00 | 0.00 | 0.00 | 39 | 1025.1 |
| 20260831022647 | 74 | 90 | 6.0 | 13.0 | 0.00 | 0.00 | 0.00 | 39 | 1025.1 |
| 20260831022144 | 74 | 90 | 5.0 | 13.0 | 0.00 | 0.00 | 0.00 | 42 | 1025.4 |
| 20260831021642 | 74 | 135 | 11.0 | 17.0 | 0.00 | 0.00 | 0.00 | 41 | 1025.6 |
| 20260831021139 | 74 | 135 | 15.0 | 15.0 | 0.00 | 0.00 | 0.00 | 40 | 1025.5 |
| 20260831021039 | 74 | 112 | 7.0 | 17.0 | 0.00 | 0.00 | 0.00 | 40 | 1025.5 |
| 20260831020536 | 75 | 67 | 10.0 | 15.0 | 0.00 | 0.00 | 0.00 | 41 | 1025.5 |
| 20260831020034 | 74 | 90 | 9.0 | 18.0 | 0.00 | 0.00 | 0.00 | 40 | 1025.6 |
| 20260831015920 | 74 | 101 | 18.0 | 18.0 | 0.00 | 0.00 | 0.00 | 41 | 1025.6 |
| 20260831015708 | 74 | 135 | 9.0 | 18.0 | 0.00 | 0.00 | 0.00 | 42 | 1025.6 |
| 20260831015516 | 74 | 112 | 18.0 | 18.0 | 0.00 | 0.00 | 0.00 | 43 | 1025.5 |
| 20260831015135 | 73 | 135 | 9.0 | 18.0 | 0.00 | 0.00 | 0.00 | 45 | 1025.5 |
| 20260831014842 | 73 | 157 | 18.0 | 18.0 | 0.00 | 0.00 | 0.00 | 45 | 1025.6 |
| 20260831014730 | 73 | 157 | 5.0 | 15.0 | 0.00 | 0.00 | 0.00 | 45 | 1025.6 |
| 20260831014227 | 73 | 90 | 10.0 | 14.0 | 0.00 | 0.00 | 0.00 | 46 | 1025.7 |
| 20260831013723 | 72 | 90 | 14.0 | 14.0 | 0.00 | 0.00 | 0.00 | 47 | 1025.8 |
| 20260831013411 | 72 | 90 | 5.0 | 10.0 | 0.00 | 0.00 | 0.00 | 48 | 1025.9 |
| 20260831012910 | 72 | 90 | 6.0 | 14.0 | 0.00 | 0.00 | 0.00 | 48 | 1026.2 |
| 20260831012407 | 72 | 123 | 8.0 | 12.0 | 0.00 | 0.00 | 0.00 | 48 | 1026.2 |
| 20260831011904 | 73 | 123 | 8.0 | 16.0 | 0.00 | 0.00 | 0.00 | 48 | 1026.4 |
| 20260831011404 | 73 | 67 | 8.0 | 16.0 | 0.00 | 0.00 | 0.00 | 48 | 1026.5 |
| 20260831010859 | 72 | 135 | 13.0 | 15.0 | 0.00 | 0.00 | 0.00 | 48 | 1026.5 |
| 20260831010358 | 72 | 90 | 12.0 | 12.0 | 0.00 | 0.00 | 0.00 | 50 | 1026.6 |
| 20260831005935 | 72 | 135 | 3.0 | 11.0 | 0.00 | 0.00 | 0.00 | 52 | 1026.8 |
| 20260831005604 | 72 | 135 | 11.0 | 11.0 | 0.00 | 0.00 | 0.00 | 52 | 1027.0 |
| 20260831005500 | 72 | 180 | 3.0 | 10.0 | 0.00 | 0.00 | 0.00 | 52 | 1026.9 |
| 20260831004958 | 72 | 90 | 8.0 | 16.0 | 0.00 | 0.00 | 0.00 | 51 | 1027.0 |
| 20260831004756 | 72 | 112 | 16.0 | 16.0 | 0.00 | 0.00 | 0.00 | 51 | 1027.0 |
| 20260831004555 | 72 | 67 | 7.0 | 10.0 | 0.00 | 0.00 | 0.00 | 52 | 1027.0 |
| 20260831004052 | 71 | 112 | 10.0 | 12.0 | 0.00 | 0.00 | 0.00 | 52 | 1027.2 |
| 20260831003549 | 72 | 90 | 12.0 | 15.0 | 0.00 | 0.00 | 0.00 | 52 | 1027.2 |
| 20260831003047 | 71 | 90 | 8.0 | 14.0 | 0.00 | 0.00 | 0.00 | 53 | 1027.3 |
| 20260831002546 | 71 | 90 | 6.0 | 15.0 | 0.00 | 0.00 | 0.00 | 54 | 1027.3 |
| 20260831002042 | 71 | 135 | 8.0 | 10.0 | 0.00 | 0.00 | 0.00 | 55 | 1027.5 |
| 20260831001540 | 70 | 135 | 8.0 | 14.0 | 0.00 | 0.00 | 0.00 | 54 | 1027.5 |
| 20260831001039 | 70 | 112 | 7.0 | 14.0 | 0.00 | 0.00 | 0.00 | 55 | 1027.7 |
| 20260831000537 | 70 | 135 | 8.0 | 14.0 | 0.00 | 0.00 | 0.00 | 56 | 1027.6 |
| 20260831000034 | 69 | 135 | 11.0 | 15.0 | 0.00 | 0.00 | 0.00 | 57 | 1027.7 |
| 20260830235531 | 69 | 101 | 11.0 | 14.0 | 0.00 | 0.00 | 0.00 | 57 | 1027.8 |
| 20260830235031 | 69 | 112 | 10.0 | 14.0 | 0.00 | 0.00 | 0.00 | 58 | 1027.8 |
| 20260830234526 | 69 | 78 | 11.0 | 13.0 | 0.00 | 0.00 | 0.00 | 58 | 1027.7 |
| 20260830234024 | 69 | 135 | 15.0 | 15.0 | 0.00 | 0.00 | 0.00 | 58 | 1027.8 |
| 20260830233922 | 69 | 56 | 6.0 | 14.0 | 0.00 | 0.00 | 0.00 | 58 | 1027.8 |
| 20260830233520 | 69 | 135 | 14.0 | 14.0 | 0.00 | 0.00 | 0.00 | 58 | 1027.9 |
| 20260830233018 | 69 | 135 | 12.0 | 14.0 | 0.00 | 0.00 | 0.00 | 59 | 1027.9 |
| 20260830232518 | 68 | 112 | 9.0 | 13.0 | 0.00 | 0.00 | 0.00 | 60 | 1027.8 |
| 20260830232013 | 67 | 112 | 11.0 | 11.0 | 0.00 | 0.00 | 0.00 | 61 | 1027.9 |
| 20260830231511 | 67 | 135 | 13.0 | 15.0 | 0.00 | 0.00 | 0.00 | 61 | 1028.0 |
| 20260830231009 | 67 | 135 | 14.0 | 14.0 | 0.00 | 0.00 | 0.00 | 62 | 1027.9 |
| 20260830230606 | 67 | 135 | 6.0 | 14.0 | 0.00 | 0.00 | 0.00 | 62 | 1028.0 |
| 20260830230246 | 67 | 135 | 14.0 | 14.0 | 0.00 | 0.00 | 0.00 | 63 | 1028.0 |
| 20260830225812 | 67 | 135 | 5.0 | 11.0 | 0.00 | 0.00 | 0.00 | 64 | 1028.1 |
| 20260830225309 | 66 | 78 | 5.0 | 10.0 | 0.00 | 0.00 | 0.00 | 64 | 1028.1 |
| 20260830224807 | 65 | 101 | 7.0 | 10.0 | 0.00 | 0.00 | 0.00 | 65 | 1028.2 |
| 20260830224305 | 65 | 135 | 6.0 | 10.0 | 0.00 | 0.00 | 0.00 | 66 | 1028.3 |
| 20260830223802 | 65 | 180 | 7.0 | 10.0 | 0.00 | 0.00 | 0.00 | 67 | 1028.3 |
| 20260830223300 | 64 | 146 | 6.0 | 9.0 | 0.00 | 0.00 | 0.00 | 68 | 1028.3 |
| 20260830222758 | 64 | 135 | 8.0 | 9.0 | 0.00 | 0.00 | 0.00 | 68 | 1028.2 |
| 20260830222256 | 63 | 146 | 6.0 | 10.0 | 0.00 | 0.00 | 0.00 | 70 | 1028.3 |
| 20260830221754 | 63 | 135 | 10.0 | 10.0 | 0.00 | 0.00 | 0.00 | 70 | 1028.2 |
| 20260830221251 | 63 | 135 | 7.0 | 9.0 | 0.00 | 0.00 | 0.00 | 71 | 1028.4 |
| 20260830220748 | 62 | 135 | 9.0 | 11.0 | 0.00 | 0.00 | 0.00 | 73 | 1028.6 |
| 20260830220246 | 62 | 135 | 9.0 | 11.0 | 0.00 | 0.00 | 0.00 | 74 | 1028.4 |
| 20260830215242 | 60 | 135 | 7.0 | 9.0 | 0.00 | 0.00 | 0.00 | 77 | 1028.5 |
| 20260830214739 | 60 | 146 | 9.0 | 10.0 | 0.00 | 0.00 | 0.00 | 79 | 1028.6 |
| 20260830214237 | 59 | 180 | 7.0 | 10.0 | 0.00 | 0.00 | 0.00 | 81 | 1028.6 |
| 20260830213735 | 58 | 146 | 7.0 | 7.0 | 0.00 | 0.00 | 0.00 | 83 | 1028.6 |
| 20260830213233 | 56 | 135 | 5.0 | 5.0 | 0.00 | 0.00 | 0.00 | 84 | 1028.5 |
| 20260830212731 | 55 | 180 | 4.0 | 5.0 | 0.00 | 0.00 | 0.00 | 85 | 1028.4 |
| 20260830212228 | 54 | 157 | 2.0 | 3.0 | 0.00 | 0.00 | 0.00 | 84 | 1028.4 |
| 20260830211725 | 53 | 180 | 1.0 | 3.0 | 0.00 | 0.00 | 0.00 | 83 | 1028.2 |
| 20260830211223 | 52 | 135 | 1.0 | 1.0 | 0.00 | 0.00 | 0.00 | 82 | 1028.0 |
| 20260830210723 | 52 | 45 | 1.0 | 1.0 | 0.00 | 0.00 | 0.00 | 85 | 1028.1 |
| 20260830210219 | 51 | 315 | 0.0 | 1.0 | 0.00 | 0.00 | 0.00 | 84 | 1028.2 |
| 20260830205717 | 51 | 0 | 1.0 | 1.0 | 0.00 | 0.00 | 0.00 | 84 | 1028.1 |
| 20260830205214 | 51 | 315 | 0.0 | 1.0 | 0.00 | 0.00 | 0.00 | 83 | 1028.0 |
| 20260830204712 | 51 | 315 | 1.0 | 1.0 | 0.00 | 0.00 | 0.00 | 84 | 1027.9 |
| 20260830204210 | 50 | 202 | 1.0 | 1.0 | 0.00 | 0.00 | 0.00 | 85 | 1027.9 |
| 20260830203708 | 50 | 180 | 0.0 | 1.0 | 0.00 | 0.00 | 0.00 | 86 | 1027.9 |
| 20260830203205 | 50 | 225 | 1.0 | 2.0 | 0.00 | 0.00 | 0.00 | 89 | 1028.1 |
| 20260830202702 | 49 | 180 | 3.0 | 4.0 | 0.00 | 0.00 | 0.00 | 92 | 1028.1 |
| 20260830202200 | 49 | 180 | 3.0 | 3.0 | 0.00 | 0.00 | 0.00 | 87 | 1027.8 |
| 20260830201658 | 49 | 180 | 1.0 | 3.0 | 0.00 | 0.00 | 0.00 | 85 | 1027.8 |
| 20260830201159 | 49 | 180 | 1.0 | 3.0 | 0.00 | 0.00 | 0.00 | 83 | 1027.6 |
| 20260830200655 | 49 | 180 | 1.0 | 3.0 | 0.00 | 0.00 | 0.00 | 83 | 1027.5 |
| 20260830200151 | 48 | 180 | 2.0 | 2.0 | 0.00 | 0.00 | 0.00 | 82 | 1027.4 |
| 20260830195148 | 48 | 135 | 0.0 | 0.0 | 0.00 | 0.00 | 0.00 | 78 | 1027.0 |
| 20260830194646 | 49 | 135 | 0.0 | 0.0 | 0.00 | 0.00 | 0.00 | 78 | 1027.0 |
| 20260830194142 | 49 | 135 | 0.0 | 0.0 | 0.00 | 0.00 | 0.00 | 78 | 1026.8 |
| 20260830193639 | 49 | 135 | 0.0 | 0.0 | 0.00 | 0.00 | 0.00 | 78 | 1026.8 |
| 20260830193137 | 49 | 135 | 0.0 | 0.0 | 0.00 | 0.00 | 0.00 | 77 | 1026.7 |
| 20260830192635 | 49 | 135 | 0.0 | 0.0 | 0.00 | 0.00 | 0.00 | 77 | 1026.6 |
| 20260830192133 | 49 | 270 | 0.0 | 0.0 | 0.00 | 0.00 | 0.00 | 77 | 1026.5 |
| 20260830191631 | 49 | 225 | 0.0 | 0.0 | 0.00 | 0.00 | 0.00 | 76 | 1026.5 |
| 20260830190623 | 50 | 180 | 0.0 | 0.0 | 0.00 | 0.00 | 0.00 | 76 | 1026.5 |
| 20260830190123 | 50 | 90 | 0.0 | 0.0 | 0.00 | 0.00 | 0.00 | 77 | 1026.5 |